Main page
Satellite images 10-day forecastsClimateMarine weather Cyclones Lightning AirportsFAQ Newsletter About
Weather : Europe Africa North America South America Asia Australia-Oceania Others
Languages Contact

Christchurch, New Zealand

Christchurch International Airport

latitude: 43-29S, longitude: 172-33E, elevation: 38 m


METAR: NZCH 300030Z AUTO 18008KT 140V220 9999 NCD 19/11 Q1011 NOSIG
TAF: NZCH 292349Z 3000/3100 18012KT 9999 SCT030 BECMG 3004/3006 05005KT TEMPO 3016/3021 7000 SHRA

Time: 14:02 (01:02 UTC)

Current weather observation

The report was made 32 minutes ago, at 00:30 UTC
Wind 8 kt from the South, varying between Southeast and Southwest
Temperature 19°C
Humidity 60%
Pressure 1011 hPa
Visibility 10 km or more

Change units

Forecast

The report was made 1 hour and 13 minutes ago, at 23:49 UTC
Forecast valid from 30 at 00 UTC to 31 at 00 UTC
Wind 12 kt from the South
Visibility 10 km or more
Scattered clouds at a height of 3000 ft
Becoming
from 30 at 04 UTC to 30 at 06 UTC
Wind 5 kt from the Northeast
Temporary
from 30 at 16 UTC to 30 at 21 UTC
Visibility: 7000 m
rain showers
The information on this site is subject to a disclaimer
Weather : Europe Africa North America South America Asia Australia-Oceania Others
Satellite images 10-day forecastsClimateMarine weather Cyclones Lightning AirportsFAQ Languages Contact Newsletter About